sensor_id;sensor_type;location;lat;lon;timestamp;temperature;humidity
56300;DHT22;42209;6.376;-10.782;2023-09-18T00:01:11;22.40;84.90
56300;DHT22;42209;6.376;-10.782;2023-09-18T00:03:40;22.50;85.60
56300;DHT22;42209;6.376;-10.782;2023-09-18T00:06:08;22.60;85.30
56300;DHT22;42209;6.376;-10.782;2023-09-18T00:08:39;22.60;85.30
56300;DHT22;42209;6.376;-10.782;2023-09-18T00:11:07;22.70;84.70
56300;DHT22;42209;6.376;-10.782;2023-09-18T00:13:35;22.80;85.00
56300;DHT22;42209;6.376;-10.782;2023-09-18T00:16:04;22.70;79.10
56300;DHT22;42209;6.376;-10.782;2023-09-18T00:18:32;22.30;75.00
56300;DHT22;42209;6.376;-10.782;2023-09-18T00:21:01;22.00;72.50
56300;DHT22;42209;6.376;-10.782;2023-09-18T00:23:30;21.80;70.80
56300;DHT22;42209;6.376;-10.782;2023-09-18T00:25:58;21.80;74.40
56300;DHT22;42209;6.376;-10.782;2023-09-18T00:28:26;21.90;78.90
56300;DHT22;42209;6.376;-10.782;2023-09-18T00:30:55;22.10;80.60
56300;DHT22;42209;6.376;-10.782;2023-09-18T00:33:23;22.20;82.10
56300;DHT22;42209;6.376;-10.782;2023-09-18T00:35:52;22.20;83.30
56300;DHT22;42209;6.376;-10.782;2023-09-18T00:38:20;22.30;84.20
56300;DHT22;42209;6.376;-10.782;2023-09-18T00:40:49;22.30;85.00
56300;DHT22;42209;6.376;-10.782;2023-09-18T00:43:17;22.40;85.70
56300;DHT22;42209;6.376;-10.782;2023-09-18T00:45:47;22.40;86.50
56300;DHT22;42209;6.376;-10.782;2023-09-18T00:48:17;22.50;86.50
56300;DHT22;42209;6.376;-10.782;2023-09-18T00:50:46;22.60;86.20
56300;DHT22;42209;6.376;-10.782;2023-09-18T00:53:19;22.70;86.00
56300;DHT22;42209;6.376;-10.782;2023-09-18T00:55:50;22.70;86.00
56300;DHT22;42209;6.376;-10.782;2023-09-18T00:58:22;22.80;81.20
56300;DHT22;42209;6.376;-10.782;2023-09-18T01:00:50;22.40;76.50
56300;DHT22;42209;6.376;-10.782;2023-09-18T01:03:20;22.10;73.70
56300;DHT22;42209;6.376;-10.782;2023-09-18T01:05:49;21.90;71.20
56300;DHT22;42209;6.376;-10.782;2023-09-18T01:08:18;21.80;72.60
56300;DHT22;42209;6.376;-10.782;2023-09-18T01:13:51;22.10;80.50
56300;DHT22;42209;6.376;-10.782;2023-09-18T01:16:30;22.20;82.50
56300;DHT22;42209;6.376;-10.782;2023-09-18T01:19:01;22.20;83.70
56300;DHT22;42209;6.376;-10.782;2023-09-18T01:21:29;22.30;84.50
56300;DHT22;42209;6.376;-10.782;2023-09-18T01:23:58;22.40;85.30
56300;DHT22;42209;6.376;-10.782;2023-09-18T01:26:26;22.40;86.20
56300;DHT22;42209;6.376;-10.782;2023-09-18T01:28:55;22.50;86.90
56300;DHT22;42209;6.376;-10.782;2023-09-18T01:31:23;22.60;86.80
56300;DHT22;42209;6.376;-10.782;2023-09-18T01:33:52;22.60;86.90
56300;DHT22;42209;6.376;-10.782;2023-09-18T01:36:21;22.70;86.80
56300;DHT22;42209;6.376;-10.782;2023-09-18T01:38:51;22.70;86.50
56300;DHT22;42209;6.376;-10.782;2023-09-18T01:41:20;22.80;82.60
56300;DHT22;42209;6.376;-10.782;2023-09-18T01:43:49;22.50;77.80
56300;DHT22;42209;6.376;-10.782;2023-09-18T01:46:17;22.20;74.40
56300;DHT22;42209;6.376;-10.782;2023-09-18T01:48:47;21.90;71.70
56300;DHT22;42209;6.376;-10.782;2023-09-18T01:51:15;21.80;70.70
56300;DHT22;42209;6.376;-10.782;2023-09-18T01:53:44;21.90;77.40
56300;DHT22;42209;6.376;-10.782;2023-09-18T01:56:12;22.00;79.80
56300;DHT22;42209;6.376;-10.782;2023-09-18T01:58:40;22.10;81.50
56300;DHT22;42209;6.376;-10.782;2023-09-18T02:01:09;22.20;82.70
56300;DHT22;42209;6.376;-10.782;2023-09-18T02:03:38;22.20;83.60
56300;DHT22;42209;6.376;-10.782;2023-09-18T02:06:27;22.30;84.30
56300;DHT22;42209;6.376;-10.782;2023-09-18T02:08:56;22.40;85.60
56300;DHT22;42209;6.376;-10.782;2023-09-18T02:11:24;22.40;86.00
56300;DHT22;42209;6.376;-10.782;2023-09-18T02:13:53;22.40;86.20
56300;DHT22;42209;6.376;-10.782;2023-09-18T02:16:21;22.60;86.20
56300;DHT22;42209;6.376;-10.782;2023-09-18T02:18:50;22.60;86.40
56300;DHT22;42209;6.376;-10.782;2023-09-18T02:21:22;22.70;86.00
56300;DHT22;42209;6.376;-10.782;2023-09-18T02:23:52;22.70;86.00
56300;DHT22;42209;6.376;-10.782;2023-09-18T02:26:21;22.80;83.40
56300;DHT22;42209;6.376;-10.782;2023-09-18T02:28:52;22.60;77.00
56300;DHT22;42209;6.376;-10.782;2023-09-18T02:31:21;22.20;74.30
56300;DHT22;42209;6.376;-10.782;2023-09-18T02:33:49;21.90;71.40
56300;DHT22;42209;6.376;-10.782;2023-09-18T02:36:18;21.80;71.30
56300;DHT22;42209;6.376;-10.782;2023-09-18T02:38:48;21.90;77.60
56300;DHT22;42209;6.376;-10.782;2023-09-18T02:41:18;21.90;80.00
56300;DHT22;42209;6.376;-10.782;2023-09-18T02:43:46;22.10;81.40
56300;DHT22;42209;6.376;-10.782;2023-09-18T02:46:16;22.20;82.60
56300;DHT22;42209;6.376;-10.782;2023-09-18T02:48:45;22.20;83.60
56300;DHT22;42209;6.376;-10.782;2023-09-18T02:51:13;22.30;84.40
56300;DHT22;42209;6.376;-10.782;2023-09-18T02:53:41;22.30;85.10
56300;DHT22;42209;6.376;-10.782;2023-09-18T02:56:10;22.40;85.80
56300;DHT22;42209;6.376;-10.782;2023-09-18T02:58:38;22.50;86.20
56300;DHT22;42209;6.376;-10.782;2023-09-18T03:01:07;22.50;86.60
56300;DHT22;42209;6.376;-10.782;2023-09-18T03:03:36;22.60;86.50
56300;DHT22;42209;6.376;-10.782;2023-09-18T03:06:05;22.70;85.80
56300;DHT22;42209;6.376;-10.782;2023-09-18T03:08:34;22.70;85.90
56300;DHT22;42209;6.376;-10.782;2023-09-18T03:11:11;22.80;85.80
56300;DHT22;42209;6.376;-10.782;2023-09-18T03:13:45;22.70;78.80
56300;DHT22;42209;6.376;-10.782;2023-09-18T03:16:14;22.30;75.20
56300;DHT22;42209;6.376;-10.782;2023-09-18T03:18:44;22.00;73.20
56300;DHT22;42209;6.376;-10.782;2023-09-18T03:21:13;21.80;70.50
56300;DHT22;42209;6.376;-10.782;2023-09-18T03:23:42;21.80;75.60
56300;DHT22;42209;6.376;-10.782;2023-09-18T03:26:11;21.90;79.20
56300;DHT22;42209;6.376;-10.782;2023-09-18T03:28:39;22.00;81.10
56300;DHT22;42209;6.376;-10.782;2023-09-18T03:31:10;22.10;82.30
56300;DHT22;42209;6.376;-10.782;2023-09-18T03:33:38;22.20;83.30
56300;DHT22;42209;6.376;-10.782;2023-09-18T03:36:06;22.30;84.50
56300;DHT22;42209;6.376;-10.782;2023-09-18T03:38:37;22.30;85.30
56300;DHT22;42209;6.376;-10.782;2023-09-18T03:41:07;22.40;85.80
56300;DHT22;42209;6.376;-10.782;2023-09-18T03:43:36;22.40;86.20
56300;DHT22;42209;6.376;-10.782;2023-09-18T03:46:05;22.50;86.50
56300;DHT22;42209;6.376;-10.782;2023-09-18T03:48:41;22.60;86.40
56300;DHT22;42209;6.376;-10.782;2023-09-18T03:51:09;22.60;86.20
56300;DHT22;42209;6.376;-10.782;2023-09-18T03:53:38;22.70;85.90
56300;DHT22;42209;6.376;-10.782;2023-09-18T03:56:06;22.70;85.70
56300;DHT22;42209;6.376;-10.782;2023-09-18T03:58:35;22.70;80.40
56300;DHT22;42209;6.376;-10.782;2023-09-18T04:01:03;22.30;75.90
56300;DHT22;42209;6.376;-10.782;2023-09-18T04:03:32;22.00;73.10
56300;DHT22;42209;6.376;-10.782;2023-09-18T04:06:00;21.80;70.60
56300;DHT22;42209;6.376;-10.782;2023-09-18T04:08:30;21.80;74.60
56300;DHT22;42209;6.376;-10.782;2023-09-18T04:11:00;21.90;78.90
56300;DHT22;42209;6.376;-10.782;2023-09-18T04:13:28;22.00;80.70
56300;DHT22;42209;6.376;-10.782;2023-09-18T04:15:57;22.10;82.30
56300;DHT22;42209;6.376;-10.782;2023-09-18T04:18:25;22.20;83.10
56300;DHT22;42209;6.376;-10.782;2023-09-18T04:20:54;22.20;84.20
56300;DHT22;42209;6.376;-10.782;2023-09-18T04:23:26;22.30;85.00
56300;DHT22;42209;6.376;-10.782;2023-09-18T04:25:55;22.30;85.70
56300;DHT22;42209;6.376;-10.782;2023-09-18T04:28:23;22.40;86.10
56300;DHT22;42209;6.376;-10.782;2023-09-18T04:30:51;22.40;86.50
56300;DHT22;42209;6.376;-10.782;2023-09-18T04:33:21;22.50;86.10
56300;DHT22;42209;6.376;-10.782;2023-09-18T04:35:49;22.60;86.10
56300;DHT22;42209;6.376;-10.782;2023-09-18T04:38:18;22.70;86.10
56300;DHT22;42209;6.376;-10.782;2023-09-18T04:40:46;22.70;85.90
56300;DHT22;42209;6.376;-10.782;2023-09-18T04:43:15;22.80;82.20
56300;DHT22;42209;6.376;-10.782;2023-09-18T04:45:44;22.40;77.10
56300;DHT22;42209;6.376;-10.782;2023-09-18T04:48:14;22.10;73.90
56300;DHT22;42209;6.376;-10.782;2023-09-18T04:50:46;21.90;72.00
56300;DHT22;42209;6.376;-10.782;2023-09-18T04:53:14;21.90;77.70
56300;DHT22;42209;6.376;-10.782;2023-09-18T04:55:43;22.00;80.60
56300;DHT22;42209;6.376;-10.782;2023-09-18T04:58:11;22.10;82.20
56300;DHT22;42209;6.376;-10.782;2023-09-18T05:00:39;22.10;83.40
56300;DHT22;42209;6.376;-10.782;2023-09-18T05:03:09;22.20;84.40
56300;DHT22;42209;6.376;-10.782;2023-09-18T05:05:38;22.30;85.40
56300;DHT22;42209;6.376;-10.782;2023-09-18T05:08:07;22.30;85.80
56300;DHT22;42209;6.376;-10.782;2023-09-18T05:10:36;22.40;86.10
56300;DHT22;42209;6.376;-10.782;2023-09-18T05:13:05;22.40;86.90
56300;DHT22;42209;6.376;-10.782;2023-09-18T05:15:33;22.50;86.80
56300;DHT22;42209;6.376;-10.782;2023-09-18T05:18:01;22.60;86.60
56300;DHT22;42209;6.376;-10.782;2023-09-18T05:20:31;22.70;86.50
56300;DHT22;42209;6.376;-10.782;2023-09-18T05:23:00;22.70;86.10
56300;DHT22;42209;6.376;-10.782;2023-09-18T05:25:29;22.80;82.50
56300;DHT22;42209;6.376;-10.782;2023-09-18T05:27:59;22.40;76.70
56300;DHT22;42209;6.376;-10.782;2023-09-18T05:30:30;22.10;73.80
56300;DHT22;42209;6.376;-10.782;2023-09-18T05:32:59;21.90;72.20
56300;DHT22;42209;6.376;-10.782;2023-09-18T05:35:28;21.90;78.70
56300;DHT22;42209;6.376;-10.782;2023-09-18T05:37:56;22.00;81.40
56300;DHT22;42209;6.376;-10.782;2023-09-18T05:40:25;22.10;82.90
56300;DHT22;42209;6.376;-10.782;2023-09-18T05:42:55;22.20;83.90
56300;DHT22;42209;6.376;-10.782;2023-09-18T05:45:24;22.20;85.00
56300;DHT22;42209;6.376;-10.782;2023-09-18T05:47:52;22.30;85.90
56300;DHT22;42209;6.376;-10.782;2023-09-18T05:50:21;22.30;86.60
56300;DHT22;42209;6.376;-10.782;2023-09-18T05:52:49;22.40;87.20
56300;DHT22;42209;6.376;-10.782;2023-09-18T05:55:18;22.50;87.40
56300;DHT22;42209;6.376;-10.782;2023-09-18T05:57:46;22.50;87.30
56300;DHT22;42209;6.376;-10.782;2023-09-18T06:00:15;22.60;86.90
56300;DHT22;42209;6.376;-10.782;2023-09-18T06:02:43;22.70;86.80
56300;DHT22;42209;6.376;-10.782;2023-09-18T06:05:13;22.70;86.40
56300;DHT22;42209;6.376;-10.782;2023-09-18T06:07:41;22.80;85.70
56300;DHT22;42209;6.376;-10.782;2023-09-18T06:10:10;22.60;78.50
56300;DHT22;42209;6.376;-10.782;2023-09-18T06:12:39;22.20;74.90
56300;DHT22;42209;6.376;-10.782;2023-09-18T06:15:08;21.90;72.60
56300;DHT22;42209;6.376;-10.782;2023-09-18T06:17:41;21.90;78.40
56300;DHT22;42209;6.376;-10.782;2023-09-18T06:20:11;22.00;81.30
56300;DHT22;42209;6.376;-10.782;2023-09-18T06:22:40;22.10;83.00
56300;DHT22;42209;6.376;-10.782;2023-09-18T06:25:09;22.20;84.20
56300;DHT22;42209;6.376;-10.782;2023-09-18T06:27:38;22.30;85.30
56300;DHT22;42209;6.376;-10.782;2023-09-18T06:30:07;22.30;85.90
56300;DHT22;42209;6.376;-10.782;2023-09-18T06:32:36;22.40;86.40
56300;DHT22;42209;6.376;-10.782;2023-09-18T06:35:05;22.40;87.20
56300;DHT22;42209;6.376;-10.782;2023-09-18T06:37:33;22.40;87.60
56300;DHT22;42209;6.376;-10.782;2023-09-18T06:40:02;22.50;87.60
56300;DHT22;42209;6.376;-10.782;2023-09-18T06:42:31;22.60;87.50
56300;DHT22;42209;6.376;-10.782;2023-09-18T06:45:00;22.60;87.20
56300;DHT22;42209;6.376;-10.782;2023-09-18T06:47:29;22.70;87.00
56300;DHT22;42209;6.376;-10.782;2023-09-18T06:49:58;22.70;81.70
56300;DHT22;42209;6.376;-10.782;2023-09-18T06:52:27;22.40;77.00
56300;DHT22;42209;6.376;-10.782;2023-09-18T06:54:56;22.10;73.90
56300;DHT22;42209;6.376;-10.782;2023-09-18T06:57:26;21.80;73.50
56300;DHT22;42209;6.376;-10.782;2023-09-18T06:59:54;21.90;79.60
56300;DHT22;42209;6.376;-10.782;2023-09-18T07:02:23;22.00;81.90
56300;DHT22;42209;6.376;-10.782;2023-09-18T07:04:51;22.10;83.60
56300;DHT22;42209;6.376;-10.782;2023-09-18T07:07:20;22.20;84.80
56300;DHT22;42209;6.376;-10.782;2023-09-18T07:09:48;22.20;85.60
56300;DHT22;42209;6.376;-10.782;2023-09-18T07:12:31;22.30;86.30
56300;DHT22;42209;6.376;-10.782;2023-09-18T07:15:01;22.40;86.90
56300;DHT22;42209;6.376;-10.782;2023-09-18T07:17:31;22.40;87.40
56300;DHT22;42209;6.376;-10.782;2023-09-18T07:21:16;22.50;87.50
56300;DHT22;42209;6.376;-10.782;2023-09-18T07:23:46;22.60;87.30
56300;DHT22;42209;6.376;-10.782;2023-09-18T07:26:14;22.70;87.00
56300;DHT22;42209;6.376;-10.782;2023-09-18T07:28:43;22.70;87.10
56300;DHT22;42209;6.376;-10.782;2023-09-18T07:31:11;22.70;85.90
56300;DHT22;42209;6.376;-10.782;2023-09-18T07:33:40;22.60;79.10
56300;DHT22;42209;6.376;-10.782;2023-09-18T07:36:09;22.20;75.60
56300;DHT22;42209;6.376;-10.782;2023-09-18T07:38:38;21.90;73.20
56300;DHT22;42209;6.376;-10.782;2023-09-18T07:41:06;21.80;71.60
56300;DHT22;42209;6.376;-10.782;2023-09-18T07:43:34;21.80;77.90
56300;DHT22;42209;6.376;-10.782;2023-09-18T07:46:03;21.90;80.80
56300;DHT22;42209;6.376;-10.782;2023-09-18T07:48:31;22.00;82.50
56300;DHT22;42209;6.376;-10.782;2023-09-18T07:51:00;22.10;83.30
56300;DHT22;42209;6.376;-10.782;2023-09-18T07:53:28;22.20;84.60
56300;DHT22;42209;6.376;-10.782;2023-09-18T07:55:57;22.20;85.60
56300;DHT22;42209;6.376;-10.782;2023-09-18T07:58:26;22.30;85.90
56300;DHT22;42209;6.376;-10.782;2023-09-18T08:00:55;22.40;86.90
56300;DHT22;42209;6.376;-10.782;2023-09-18T08:03:24;22.40;87.60
56300;DHT22;42209;6.376;-10.782;2023-09-18T08:05:53;22.40;87.60
56300;DHT22;42209;6.376;-10.782;2023-09-18T08:08:23;22.50;87.80
56300;DHT22;42209;6.376;-10.782;2023-09-18T08:10:53;22.60;87.90
56300;DHT22;42209;6.376;-10.782;2023-09-18T08:13:22;22.60;87.50
56300;DHT22;42209;6.376;-10.782;2023-09-18T08:15:50;22.70;87.70
56300;DHT22;42209;6.376;-10.782;2023-09-18T08:18:18;22.80;87.40
56300;DHT22;42209;6.376;-10.782;2023-09-18T08:20:48;22.60;80.70
56300;DHT22;42209;6.376;-10.782;2023-09-18T08:23:16;22.30;76.80
56300;DHT22;42209;6.376;-10.782;2023-09-18T08:25:45;22.00;74.00
56300;DHT22;42209;6.376;-10.782;2023-09-18T08:28:20;21.80;72.40
56300;DHT22;42209;6.376;-10.782;2023-09-18T08:30:59;21.80;77.60
56300;DHT22;42209;6.376;-10.782;2023-09-18T08:33:27;21.90;81.40
56300;DHT22;42209;6.376;-10.782;2023-09-18T08:35:56;22.00;82.90
56300;DHT22;42209;6.376;-10.782;2023-09-18T08:38:25;22.10;84.10
56300;DHT22;42209;6.376;-10.782;2023-09-18T08:40:54;22.20;85.00
56300;DHT22;42209;6.376;-10.782;2023-09-18T08:43:25;22.30;85.80
56300;DHT22;42209;6.376;-10.782;2023-09-18T08:45:56;22.30;86.70
56300;DHT22;42209;6.376;-10.782;2023-09-18T08:48:26;22.40;87.30
56300;DHT22;42209;6.376;-10.782;2023-09-18T08:50:56;22.40;87.80
56300;DHT22;42209;6.376;-10.782;2023-09-18T08:53:24;22.40;87.90
56300;DHT22;42209;6.376;-10.782;2023-09-18T08:55:57;22.60;88.00
56300;DHT22;42209;6.376;-10.782;2023-09-18T08:58:27;22.60;88.20
56300;DHT22;42209;6.376;-10.782;2023-09-18T09:00:56;22.70;88.10
56300;DHT22;42209;6.376;-10.782;2023-09-18T09:03:26;22.70;87.90
56300;DHT22;42209;6.376;-10.782;2023-09-18T09:05:55;22.70;83.30
56300;DHT22;42209;6.376;-10.782;2023-09-18T09:08:33;22.40;78.00
56300;DHT22;42209;6.376;-10.782;2023-09-18T09:11:04;22.00;74.80
56300;DHT22;42209;6.376;-10.782;2023-09-18T09:13:32;21.80;73.80
56300;DHT22;42209;6.376;-10.782;2023-09-18T09:16:13;21.80;76.50
56300;DHT22;42209;6.376;-10.782;2023-09-18T09:18:50;21.90;80.90
56300;DHT22;42209;6.376;-10.782;2023-09-18T09:21:21;22.10;83.10
56300;DHT22;42209;6.376;-10.782;2023-09-18T09:23:54;22.10;84.20
56300;DHT22;42209;6.376;-10.782;2023-09-18T09:26:25;22.20;85.70
56300;DHT22;42209;6.376;-10.782;2023-09-18T09:28:56;22.30;86.60
56300;DHT22;42209;6.376;-10.782;2023-09-18T09:31:25;22.40;87.70
56300;DHT22;42209;6.376;-10.782;2023-09-18T09:33:54;22.40;88.40
56300;DHT22;42209;6.376;-10.782;2023-09-18T09:36:23;22.50;89.10
56300;DHT22;42209;6.376;-10.782;2023-09-18T09:38:56;22.50;89.20
56300;DHT22;42209;6.376;-10.782;2023-09-18T09:41:27;22.60;89.40
56300;DHT22;42209;6.376;-10.782;2023-09-18T09:43:57;22.60;89.90
56300;DHT22;42209;6.376;-10.782;2023-09-18T09:46:25;22.70;89.90
56300;DHT22;42209;6.376;-10.782;2023-09-18T09:49:09;22.80;89.90
56300;DHT22;42209;6.376;-10.782;2023-09-18T09:51:37;22.60;81.80
56300;DHT22;42209;6.376;-10.782;2023-09-18T09:54:08;22.30;78.20
56300;DHT22;42209;6.376;-10.782;2023-09-18T09:56:45;22.00;75.30
56300;DHT22;42209;6.376;-10.782;2023-09-18T09:59:15;21.90;73.60
56300;DHT22;42209;6.376;-10.782;2023-09-18T10:01:56;21.70;71.90
56300;DHT22;42209;6.376;-10.782;2023-09-18T10:04:35;21.80;78.60
56300;DHT22;42209;6.376;-10.782;2023-09-18T10:07:08;22.00;81.60
56300;DHT22;42209;6.376;-10.782;2023-09-18T10:09:48;22.10;83.60
56300;DHT22;42209;6.376;-10.782;2023-09-18T10:12:20;22.20;85.00
56300;DHT22;42209;6.376;-10.782;2023-09-18T10:14:50;22.30;86.00
56300;DHT22;42209;6.376;-10.782;2023-09-18T10:17:29;22.30;86.70
56300;DHT22;42209;6.376;-10.782;2023-09-18T10:20:07;22.40;87.90
56300;DHT22;42209;6.376;-10.782;2023-09-18T10:22:42;22.40;89.10
56300;DHT22;42209;6.376;-10.782;2023-09-18T10:25:23;22.50;89.20
56300;DHT22;42209;6.376;-10.782;2023-09-18T10:27:52;22.50;89.30
56300;DHT22;42209;6.376;-10.782;2023-09-18T10:30:24;22.60;90.10
56300;DHT22;42209;6.376;-10.782;2023-09-18T10:32:54;22.60;90.30
56300;DHT22;42209;6.376;-10.782;2023-09-18T10:35:24;22.70;90.30
56300;DHT22;42209;6.376;-10.782;2023-09-18T10:37:54;22.70;90.30
56300;DHT22;42209;6.376;-10.782;2023-09-18T10:40:36;22.80;87.70
56300;DHT22;42209;6.376;-10.782;2023-09-18T10:43:08;22.50;81.90
56300;DHT22;42209;6.376;-10.782;2023-09-18T10:45:42;22.30;78.00
56300;DHT22;42209;6.376;-10.782;2023-09-18T10:48:12;22.00;75.80
56300;DHT22;42209;6.376;-10.782;2023-09-18T10:50:43;21.90;72.90
56300;DHT22;42209;6.376;-10.782;2023-09-18T10:53:12;21.80;71.70
56300;DHT22;42209;6.376;-10.782;2023-09-18T10:56:02;21.60;70.20
56300;DHT22;42209;6.376;-10.782;2023-09-18T10:58:38;21.60;70.00
56300;DHT22;42209;6.376;-10.782;2023-09-18T11:01:23;21.70;75.60
56300;DHT22;42209;6.376;-10.782;2023-09-18T11:04:01;21.90;79.70
56300;DHT22;42209;6.376;-10.782;2023-09-18T11:06:30;22.00;81.80
56300;DHT22;42209;6.376;-10.782;2023-09-18T11:09:30;22.10;83.30
56300;DHT22;42209;6.376;-10.782;2023-09-18T11:14:50;22.30;85.90
56300;DHT22;42209;6.376;-10.782;2023-09-18T11:17:40;22.30;86.80
56300;DHT22;42209;6.376;-10.782;2023-09-18T11:20:25;22.40;87.40
56300;DHT22;42209;6.376;-10.782;2023-09-18T11:23:10;22.50;88.30
56300;DHT22;42209;6.376;-10.782;2023-09-18T11:25:43;22.50;88.80
56300;DHT22;42209;6.376;-10.782;2023-09-18T11:28:25;22.60;89.20
56300;DHT22;42209;6.376;-10.782;2023-09-18T11:30:56;22.60;89.30
56300;DHT22;42209;6.376;-10.782;2023-09-18T11:33:41;22.70;89.50
56300;DHT22;42209;6.376;-10.782;2023-09-18T11:38:59;22.80;86.20
56300;DHT22;42209;6.376;-10.782;2023-09-18T11:41:36;22.50;80.60
56300;DHT22;42209;6.376;-10.782;2023-09-18T11:46:48;22.00;74.60
56300;DHT22;42209;6.376;-10.782;2023-09-18T11:49:21;21.90;73.20
56300;DHT22;42209;6.376;-10.782;2023-09-18T11:51:51;21.70;70.60
56300;DHT22;42209;6.376;-10.782;2023-09-18T11:54:21;21.60;68.70
56300;DHT22;42209;6.376;-10.782;2023-09-18T11:57:11;21.50;68.70
56300;DHT22;42209;6.376;-10.782;2023-09-18T11:59:41;21.70;76.10
56300;DHT22;42209;6.376;-10.782;2023-09-18T12:02:38;21.80;78.90
56300;DHT22;42209;6.376;-10.782;2023-09-18T12:05:17;22.00;81.30
56300;DHT22;42209;6.376;-10.782;2023-09-18T12:07:48;22.10;82.60
56300;DHT22;42209;6.376;-10.782;2023-09-18T12:10:19;22.20;84.00
56300;DHT22;42209;6.376;-10.782;2023-09-18T12:12:50;22.30;85.50
56300;DHT22;42209;6.376;-10.782;2023-09-18T12:15:19;22.40;86.50
56300;DHT22;42209;6.376;-10.782;2023-09-18T12:17:48;22.40;87.50
56300;DHT22;42209;6.376;-10.782;2023-09-18T12:20:23;22.50;88.40
56300;DHT22;42209;6.376;-10.782;2023-09-18T12:22:52;22.60;88.80
56300;DHT22;42209;6.376;-10.782;2023-09-18T12:25:20;22.60;89.10
56300;DHT22;42209;6.376;-10.782;2023-09-18T12:27:54;22.70;89.80
56300;DHT22;42209;6.376;-10.782;2023-09-18T12:30:26;22.70;89.70
56300;DHT22;42209;6.376;-10.782;2023-09-18T12:32:57;22.80;90.00
56300;DHT22;42209;6.376;-10.782;2023-09-18T12:35:27;22.80;89.10
56300;DHT22;42209;6.376;-10.782;2023-09-18T12:37:58;22.60;81.70
56300;DHT22;42209;6.376;-10.782;2023-09-18T12:40:29;22.40;77.60
56300;DHT22;42209;6.376;-10.782;2023-09-18T12:42:58;22.10;75.00
56300;DHT22;42209;6.376;-10.782;2023-09-18T12:45:30;21.90;73.20
56300;DHT22;42209;6.376;-10.782;2023-09-18T12:47:59;21.80;71.10
56300;DHT22;42209;6.376;-10.782;2023-09-18T12:50:29;21.70;69.40
56300;DHT22;42209;6.376;-10.782;2023-09-18T12:55:37;21.60;71.10
56300;DHT22;42209;6.376;-10.782;2023-09-18T12:58:09;21.80;76.00
56300;DHT22;42209;6.376;-10.782;2023-09-18T13:00:45;21.90;79.00
56300;DHT22;42209;6.376;-10.782;2023-09-18T13:03:16;22.10;81.00
56300;DHT22;42209;6.376;-10.782;2023-09-18T13:06:21;22.20;82.60
56300;DHT22;42209;6.376;-10.782;2023-09-18T13:08:50;22.30;84.30
56300;DHT22;42209;6.376;-10.782;2023-09-18T13:11:19;22.30;85.70
56300;DHT22;42209;6.376;-10.782;2023-09-18T13:13:58;22.40;86.50
56300;DHT22;42209;6.376;-10.782;2023-09-18T13:16:30;22.50;87.80
56300;DHT22;42209;6.376;-10.782;2023-09-18T13:19:04;22.60;88.40
56300;DHT22;42209;6.376;-10.782;2023-09-18T13:21:33;22.70;89.10
56300;DHT22;42209;6.376;-10.782;2023-09-18T13:24:04;22.70;89.30
56300;DHT22;42209;6.376;-10.782;2023-09-18T13:26:35;22.80;89.80
56300;DHT22;42209;6.376;-10.782;2023-09-18T13:29:21;22.80;89.50
56300;DHT22;42209;6.376;-10.782;2023-09-18T13:31:53;22.70;82.50
56300;DHT22;42209;6.376;-10.782;2023-09-18T13:34:22;22.40;78.80
56300;DHT22;42209;6.376;-10.782;2023-09-18T13:36:51;22.20;75.60
56300;DHT22;42209;6.376;-10.782;2023-09-18T13:39:31;22.00;73.60
56300;DHT22;42209;6.376;-10.782;2023-09-18T13:42:00;21.90;71.30
56300;DHT22;42209;6.376;-10.782;2023-09-18T13:44:35;21.80;69.60
56300;DHT22;42209;6.376;-10.782;2023-09-18T13:47:12;21.70;68.70
56300;DHT22;42209;6.376;-10.782;2023-09-18T13:49:47;21.60;66.40
56300;DHT22;42209;6.376;-10.782;2023-09-18T13:52:16;21.50;65.80
56300;DHT22;42209;6.376;-10.782;2023-09-18T13:55:06;21.50;64.90
56300;DHT22;42209;6.376;-10.782;2023-09-18T13:57:35;21.50;63.60
56300;DHT22;42209;6.376;-10.782;2023-09-18T14:00:04;21.40;62.90
56300;DHT22;42209;6.376;-10.782;2023-09-18T14:02:38;21.50;67.10
56300;DHT22;42209;6.376;-10.782;2023-09-18T14:05:09;21.70;73.10
56300;DHT22;42209;6.376;-10.782;2023-09-18T14:07:54;21.90;75.80
56300;DHT22;42209;6.376;-10.782;2023-09-18T14:10:37;22.00;77.90
56300;DHT22;42209;6.376;-10.782;2023-09-18T14:13:06;22.10;80.00
56300;DHT22;42209;6.376;-10.782;2023-09-18T14:15:34;22.20;81.80
56300;DHT22;42209;6.376;-10.782;2023-09-18T14:18:03;22.30;83.00
56300;DHT22;42209;6.376;-10.782;2023-09-18T14:20:44;22.30;83.70
56300;DHT22;42209;6.376;-10.782;2023-09-18T14:23:14;22.40;85.00
56300;DHT22;42209;6.376;-10.782;2023-09-18T14:25:44;22.50;85.40
56300;DHT22;42209;6.376;-10.782;2023-09-18T14:28:13;22.50;86.00
56300;DHT22;42209;6.376;-10.782;2023-09-18T14:30:41;22.60;86.20
56300;DHT22;42209;6.376;-10.782;2023-09-18T14:33:16;22.70;86.10
56300;DHT22;42209;6.376;-10.782;2023-09-18T14:36:10;22.80;86.90
56300;DHT22;42209;6.376;-10.782;2023-09-18T14:38:54;22.80;83.40
56300;DHT22;42209;6.376;-10.782;2023-09-18T14:45:06;22.20;74.00
56300;DHT22;42209;6.376;-10.782;2023-09-18T14:47:36;22.00;70.40
56300;DHT22;42209;6.376;-10.782;2023-09-18T14:50:08;21.80;68.40
56300;DHT22;42209;6.376;-10.782;2023-09-18T14:52:38;21.70;66.80
56300;DHT22;42209;6.376;-10.782;2023-09-18T14:55:07;21.60;65.50
56300;DHT22;42209;6.376;-10.782;2023-09-18T14:57:51;21.50;64.70
56300;DHT22;42209;6.376;-10.782;2023-09-18T15:00:22;21.50;63.10
56300;DHT22;42209;6.376;-10.782;2023-09-18T15:02:53;21.40;61.80
56300;DHT22;42209;6.376;-10.782;2023-09-18T15:05:27;21.50;65.90
56300;DHT22;42209;6.376;-10.782;2023-09-18T15:08:08;21.70;71.70
56300;DHT22;42209;6.376;-10.782;2023-09-18T15:10:37;21.90;74.70
56300;DHT22;42209;6.376;-10.782;2023-09-18T15:13:08;22.00;76.30
56300;DHT22;42209;6.376;-10.782;2023-09-18T15:15:42;22.10;77.90
56300;DHT22;42209;6.376;-10.782;2023-09-18T15:18:12;22.20;79.10
56300;DHT22;42209;6.376;-10.782;2023-09-18T15:20:46;22.20;80.20
56300;DHT22;42209;6.376;-10.782;2023-09-18T15:23:27;22.30;80.90
56300;DHT22;42209;6.376;-10.782;2023-09-18T15:26:03;22.40;81.80
56300;DHT22;42209;6.376;-10.782;2023-09-18T15:28:32;22.50;82.40
56300;DHT22;42209;6.376;-10.782;2023-09-18T15:31:02;22.60;82.30
56300;DHT22;42209;6.376;-10.782;2023-09-18T15:33:30;22.70;82.70
56300;DHT22;42209;6.376;-10.782;2023-09-18T15:36:15;22.80;82.80
56300;DHT22;42209;6.376;-10.782;2023-09-18T15:38:45;22.90;80.30
56300;DHT22;42209;6.376;-10.782;2023-09-18T15:41:14;22.60;74.70
56300;DHT22;42209;6.376;-10.782;2023-09-18T15:43:49;22.30;71.70
56300;DHT22;42209;6.376;-10.782;2023-09-18T15:46:18;22.10;69.20
56300;DHT22;42209;6.376;-10.782;2023-09-18T15:48:47;22.00;67.50
56300;DHT22;42209;6.376;-10.782;2023-09-18T15:51:38;21.90;66.10
56300;DHT22;42209;6.376;-10.782;2023-09-18T15:54:08;21.80;64.80
56300;DHT22;42209;6.376;-10.782;2023-09-18T15:57:07;21.70;63.30
56300;DHT22;42209;6.376;-10.782;2023-09-18T15:59:41;21.60;62.30